D73

Monroe-Walton County Airport

Monroe, Georgia, USA
METAR KD73 210330Z AUTO 00000KT 10SM CLR 07/05 A3030 RMK AO2 T00690048
Observed Flight Rules
Apr-21 @ 03:30 UTC (27 minutes ago) Visual Flight Rules
Visibility Clouds
10 miles
  • Clear skies
Temperatures Readings
Current 7°C / 45°F
Dewpoint 5°C / 41°F
Humidity 87%
Altimeter 30.3" Hg
Pressure 1026 hPa
Elevation 267
METAR KD73 210330Z AUTO 00000KT 10SM CLR 07/05 A3030 RMK AO2 T00690048
Observed Flight Rules
Apr-21 @ 03:30 UTC
(27 minutes ago)
VFR
Clouds
  • Clear skies
Temperature Dewpoint
7°C / 45°F 5°C / 41°F
Humidity Altimeter Pressure
87% 30.3" Hg 1026 hPa